createdAt,value
2022-12-11T00:00:53.473Z,25.02
2022-12-11T00:04:55.103Z,26.23
2022-12-11T00:08:56.946Z,25.40
2022-12-11T00:12:58.634Z,26.42
2022-12-11T00:17:00.342Z,25.00
2022-12-11T00:21:07.053Z,26.33
2022-12-11T00:25:09.763Z,27.65
2022-12-11T00:29:14.437Z,27.35
2022-12-11T00:33:17.046Z,26.35
2022-12-11T00:37:18.739Z,28.73
2022-12-11T00:41:20.927Z,30.08
2022-12-11T00:45:22.956Z,28.10
2022-12-11T00:49:24.607Z,27.45
2022-12-11T00:53:26.337Z,25.65
2022-12-11T00:57:27.987Z,23.98
2022-12-11T01:01:29.726Z,26.30
2022-12-11T01:05:32.314Z,24.67
2022-12-11T01:09:52.423Z,25.08
2022-12-11T01:13:54.064Z,26.52
2022-12-11T01:17:56.359Z,26.90
2022-12-11T01:21:58.068Z,28.33
2022-12-11T01:26:08.302Z,29.37
2022-12-11T01:30:10.698Z,29.40
2022-12-11T01:34:12.350Z,28.17
2022-12-11T01:38:13.960Z,28.30
2022-12-11T01:42:19.482Z,27.25
2022-12-11T01:46:21.248Z,30.40
2022-12-11T01:50:23.567Z,29.17
2022-12-11T01:54:27.781Z,28.33
2022-12-11T01:58:36.298Z,28.27
2022-12-11T02:02:38.065Z,27.62
2022-12-11T02:06:47.283Z,24.77
2022-12-11T02:10:58.636Z,25.10
2022-12-11T02:15:13.196Z,24.20
2022-12-11T02:19:21.618Z,25.80
2022-12-11T02:23:31.988Z,26.27
2022-12-11T02:27:38.004Z,24.02
2022-12-11T02:31:50.178Z,23.87
2022-12-11T02:35:52.315Z,24.10
2022-12-11T02:39:56.051Z,24.27
2022-12-11T02:43:58.475Z,24.08
2022-12-11T02:48:05.646Z,23.52
2022-12-11T02:52:11.184Z,22.00
2022-12-11T02:56:36.395Z,21.85
2022-12-11T03:00:38.058Z,21.70
2022-12-11T03:04:40.909Z,21.05
2022-12-11T03:08:42.682Z,20.05
2022-12-11T03:12:51.882Z,20.05
2022-12-11T03:17:04.965Z,20.23
2022-12-11T03:21:14.717Z,20.58
2022-12-11T03:25:21.379Z,19.17
2022-12-11T03:29:35.044Z,20.98
2022-12-11T03:33:41.572Z,20.42
2022-12-11T03:37:44.903Z,20.00
2022-12-11T03:41:48.280Z,22.15
2022-12-11T03:45:51.855Z,22.83
2022-12-11T03:49:55.719Z,21.48
2022-12-11T03:53:57.923Z,21.73
2022-12-11T03:57:59.551Z,21.90
2022-12-11T04:02:01.351Z,21.87
2022-12-11T04:06:03.257Z,22.25
2022-12-11T04:10:06.804Z,21.98
2022-12-11T04:14:32.225Z,21.48
2022-12-11T04:18:52.591Z,22.05
2022-12-11T04:23:13.012Z,20.70
2022-12-11T04:27:14.811Z,22.60
2022-12-11T04:31:19.729Z,22.50
2022-12-11T04:35:21.604Z,22.45
2022-12-11T04:39:23.251Z,22.77
2022-12-11T04:43:25.002Z,23.33
2022-12-11T04:47:27.445Z,21.48
2022-12-11T04:51:29.265Z,20.98
2022-12-11T04:55:30.900Z,21.12
2022-12-11T04:59:33.362Z,21.70
2022-12-11T05:03:35.574Z,21.98
2022-12-11T05:07:37.866Z,20.98
2022-12-11T05:11:39.554Z,21.17
2022-12-11T05:15:41.267Z,21.45
2022-12-11T05:19:42.910Z,21.35
2022-12-11T05:23:44.594Z,21.00
2022-12-11T05:27:46.235Z,21.10
2022-12-11T05:31:48.101Z,20.88
2022-12-11T05:35:49.915Z,20.45
2022-12-11T05:39:51.551Z,20.52
2022-12-11T05:43:53.574Z,19.37
2022-12-11T05:47:55.277Z,20.52
2022-12-11T05:51:56.921Z,20.70
2022-12-11T05:56:06.868Z,21.27
2022-12-11T06:00:09.511Z,20.37
2022-12-11T06:04:12.551Z,19.75
2022-12-11T06:08:14.278Z,19.75
2022-12-11T06:12:15.943Z,21.65
2022-12-11T06:16:17.628Z,20.67
2022-12-11T06:20:19.515Z,22.48
2022-12-11T06:24:21.146Z,20.83
2022-12-11T06:28:23.262Z,21.00
2022-12-11T06:32:24.946Z,20.08
2022-12-11T06:36:26.570Z,19.58
2022-12-11T06:40:28.206Z,21.83
2022-12-11T06:44:29.908Z,20.42
2022-12-11T06:48:31.816Z,20.55
2022-12-11T06:52:33.477Z,20.90
2022-12-11T06:56:35.873Z,20.58
2022-12-11T07:00:38.501Z,22.00
2022-12-11T07:04:40.958Z,20.52
2022-12-11T07:08:43.466Z,21.50
2022-12-11T07:12:45.179Z,20.20
2022-12-11T07:16:46.946Z,20.50
2022-12-11T07:20:48.656Z,21.80
2022-12-11T07:24:50.315Z,20.50
2022-12-11T07:28:52.034Z,21.02
2022-12-11T07:32:53.678Z,19.83
2022-12-11T07:36:55.365Z,20.55
2022-12-11T07:41:00.320Z,20.80
2022-12-11T07:45:01.939Z,20.42
2022-12-11T07:49:05.854Z,19.73
2022-12-11T07:53:07.654Z,20.37
2022-12-11T07:57:14.153Z,20.52
2022-12-11T08:01:18.985Z,19.42
2022-12-11T08:05:20.674Z,20.23
2022-12-11T08:09:22.540Z,20.05
2022-12-11T08:13:24.191Z,20.73
2022-12-11T08:17:29.603Z,24.63
2022-12-11T08:21:33.528Z,20.90
2022-12-11T08:25:35.859Z,20.50
2022-12-11T08:29:37.669Z,20.65
2022-12-11T08:33:40.352Z,19.95
2022-12-11T08:37:42.522Z,20.58
2022-12-11T08:41:44.289Z,20.08
2022-12-11T08:45:46.691Z,18.77
2022-12-11T08:49:48.433Z,19.42
2022-12-11T08:53:51.172Z,17.27
2022-12-11T08:57:52.826Z,18.15
2022-12-11T09:01:55.705Z,18.98
2022-12-11T09:05:57.339Z,18.77
2022-12-11T09:09:58.984Z,19.20
2022-12-11T09:14:06.810Z,18.02
2022-12-11T09:18:09.450Z,18.20
2022-12-11T09:22:12.526Z,17.75
2022-12-11T09:26:17.410Z,17.60
2022-12-11T09:30:19.050Z,17.40
2022-12-11T09:34:24.798Z,16.02
2022-12-11T09:38:31.839Z,16.90
2022-12-11T09:42:54.239Z,16.73
2022-12-11T09:46:58.175Z,15.60
2022-12-11T09:51:14.423Z,14.57
2022-12-11T09:55:24.587Z,17.30
2022-12-11T09:59:50.597Z,16.00
2022-12-11T10:04:05.813Z,15.95
2022-12-11T10:08:13.376Z,16.58
2022-12-11T10:12:23.871Z,16.25
2022-12-11T10:16:41.455Z,14.55
2022-12-11T10:20:45.029Z,15.00
2022-12-11T10:25:11.064Z,14.18
2022-12-11T10:29:15.291Z,14.33
2022-12-11T10:33:49.911Z,16.00
2022-12-11T10:37:55.326Z,14.73
2022-12-11T10:41:57.935Z,14.65
2022-12-11T10:45:59.916Z,15.23
2022-12-11T10:50:03.963Z,14.40
2022-12-11T10:54:33.646Z,15.00
2022-12-11T10:58:39.786Z,14.05
2022-12-11T11:02:45.385Z,15.23
2022-12-11T11:06:47.220Z,14.85
2022-12-11T11:10:57.444Z,14.52
2022-12-11T11:15:04.941Z,15.25
2022-12-11T11:19:07.066Z,15.07
2022-12-11T11:23:14.139Z,14.87
2022-12-11T11:27:44.399Z,16.08
2022-12-11T11:31:46.067Z,15.73
2022-12-11T11:36:00.861Z,15.60
2022-12-11T11:40:28.037Z,16.55
2022-12-11T11:44:43.723Z,15.07
2022-12-11T11:48:48.414Z,16.92
2022-12-11T11:53:04.682Z,13.55
2022-12-11T11:57:35.291Z,12.75
2022-12-11T12:01:37.082Z,13.15
2022-12-11T12:05:57.423Z,13.60
2022-12-11T12:10:23.799Z,14.00
2022-12-11T12:18:57.624Z,14.95
2022-12-11T12:22:59.193Z,14.65
2022-12-11T12:27:50.383Z,14.55
2022-12-11T12:32:08.125Z,15.10
2022-12-11T12:36:39.071Z,14.87
2022-12-11T12:40:43.703Z,15.88
2022-12-11T12:45:20.267Z,16.12
2022-12-11T12:49:39.814Z,15.65
2022-12-11T12:53:44.293Z,16.58
2022-12-11T12:57:57.986Z,16.73
2022-12-11T13:02:02.697Z,17.70
2022-12-11T13:06:09.086Z,18.55
2022-12-11T13:10:27.571Z,17.08
2022-12-11T13:14:33.657Z,17.77
2022-12-11T13:18:37.999Z,16.80
2022-12-11T13:22:53.687Z,18.62
2022-12-11T13:26:55.677Z,17.90
2022-12-11T13:31:08.176Z,17.85
2022-12-11T13:35:17.397Z,18.15
2022-12-11T13:39:25.466Z,18.73
2022-12-11T13:43:29.715Z,17.42
2022-12-11T13:47:32.834Z,18.12
2022-12-11T13:51:36.065Z,18.77
2022-12-11T13:55:37.685Z,19.17
2022-12-11T13:59:43.336Z,25.77
2022-12-11T14:03:55.342Z,21.95
2022-12-11T14:08:01.211Z,26.02
2022-12-11T14:12:02.997Z,17.83
2022-12-11T14:16:06.196Z,19.00
2022-12-11T14:20:18.028Z,18.50
2022-12-11T14:24:19.713Z,18.67
2022-12-11T14:28:23.143Z,18.50
2022-12-11T14:32:41.797Z,18.90
2022-12-11T14:36:46.301Z,19.15
2022-12-11T14:40:51.650Z,18.00
2022-12-11T14:44:55.267Z,17.58
2022-12-11T14:49:01.715Z,17.12
2022-12-11T14:53:08.987Z,17.48
2022-12-11T14:57:20.209Z,16.95
2022-12-11T15:01:36.959Z,18.12
2022-12-11T15:05:55.704Z,20.10
2022-12-11T15:09:57.406Z,19.58
2022-12-11T15:14:02.626Z,18.25
2022-12-11T15:18:07.558Z,20.65
2022-12-11T15:22:15.069Z,18.77
2022-12-11T15:26:16.886Z,17.62
2022-12-11T15:30:19.674Z,18.30
2022-12-11T15:34:24.251Z,18.65
2022-12-11T15:38:39.387Z,18.98
2022-12-11T15:42:42.304Z,17.77
2022-12-11T15:46:43.943Z,19.40
2022-12-11T15:50:45.699Z,17.70
2022-12-11T15:54:47.302Z,19.60
2022-12-11T15:58:49.421Z,21.08
2022-12-11T16:02:51.996Z,18.92
2022-12-11T16:06:54.491Z,19.90
2022-12-11T16:10:56.205Z,19.27
2022-12-11T16:14:58.032Z,21.00
2022-12-11T16:19:00.611Z,22.20
2022-12-11T16:23:02.690Z,20.48
2022-12-11T16:27:05.923Z,21.25
2022-12-11T16:31:14.605Z,26.87
2022-12-11T16:35:16.410Z,22.23
2022-12-11T16:39:18.073Z,19.90
2022-12-11T16:43:19.713Z,19.33
2022-12-11T16:47:21.343Z,20.02
2022-12-11T16:51:23.290Z,20.37
2022-12-11T16:55:24.967Z,19.37
2022-12-11T16:59:26.588Z,20.77
2022-12-11T17:03:34.137Z,21.75
2022-12-11T17:07:35.985Z,23.42
2022-12-11T17:11:37.717Z,20.95
2022-12-11T17:15:41.229Z,20.75
2022-12-11T17:19:42.958Z,23.70
2022-12-11T17:23:45.065Z,23.87
2022-12-11T17:27:46.689Z,21.33
2022-12-11T17:31:48.397Z,20.62
2022-12-11T17:35:50.479Z,20.23
2022-12-11T17:39:52.156Z,21.77
2022-12-11T17:43:54.112Z,20.95
2022-12-11T17:47:55.754Z,23.48
2022-12-11T17:51:57.551Z,24.45
2022-12-11T17:56:04.648Z,22.05
2022-12-11T18:00:07.098Z,21.35
2022-12-11T18:04:08.844Z,23.08
2022-12-11T18:08:14.699Z,23.95
2022-12-11T18:12:16.348Z,20.90
2022-12-11T18:16:25.171Z,20.02
2022-12-11T18:20:27.103Z,21.62
2022-12-11T18:24:31.768Z,22.55
2022-12-11T18:28:33.477Z,20.37
2022-12-11T18:32:35.237Z,21.02
2022-12-11T18:36:36.873Z,26.52
2022-12-11T18:40:39.023Z,30.37
2022-12-11T18:44:43.010Z,21.80
2022-12-11T18:48:46.692Z,23.33
2022-12-11T18:52:53.084Z,20.12
2022-12-11T18:56:54.754Z,20.42
2022-12-11T19:00:56.442Z,23.75
2022-12-11T19:04:58.093Z,19.15
2022-12-11T19:09:00.248Z,19.33
2022-12-11T19:13:02.035Z,18.65
2022-12-11T19:17:03.843Z,18.90
2022-12-11T19:21:12.366Z,19.15
2022-12-11T19:25:14.487Z,18.92
2022-12-11T19:29:25.631Z,18.12
2022-12-11T19:33:27.267Z,22.40
2022-12-11T19:37:28.876Z,19.05
2022-12-11T19:41:31.042Z,19.65
2022-12-11T19:45:32.667Z,19.52
2022-12-11T19:49:34.384Z,20.35
2022-12-11T19:53:36.710Z,20.25
2022-12-11T19:57:38.755Z,20.90
2022-12-11T20:01:40.504Z,20.90
2022-12-11T20:05:42.275Z,21.40
2022-12-11T20:09:44.012Z,23.90
2022-12-11T20:13:47.038Z,21.40
2022-12-11T20:17:55.886Z,21.15
2022-12-11T20:21:58.930Z,23.70
2022-12-11T20:26:25.145Z,24.77
2022-12-11T20:30:26.826Z,20.02
2022-12-11T20:34:28.572Z,20.33
2022-12-11T20:38:34.434Z,21.87
2022-12-11T20:42:36.487Z,27.00
2022-12-11T20:46:38.377Z,22.13
2022-12-11T20:50:40.120Z,23.02
2022-12-11T20:54:41.954Z,21.33
2022-12-11T20:58:44.407Z,21.23
2022-12-11T21:02:46.086Z,21.62
2022-12-11T21:06:55.723Z,20.48
2022-12-11T21:10:57.377Z,20.20
2022-12-11T21:14:59.039Z,21.77
2022-12-11T21:19:01.547Z,20.25
2022-12-11T21:23:03.753Z,21.87
2022-12-11T21:27:05.420Z,19.77
2022-12-11T21:31:09.764Z,18.67
2022-12-11T21:35:12.317Z,20.75
2022-12-11T21:39:14.879Z,21.00
2022-12-11T21:43:16.714Z,21.05
2022-12-11T21:47:18.393Z,19.75
2022-12-11T21:51:30.966Z,22.27
2022-12-11T21:55:40.221Z,21.85
2022-12-11T21:59:41.905Z,22.42
2022-12-11T22:03:43.693Z,34.67
2022-12-11T22:07:45.397Z,25.92
2022-12-11T22:11:47.443Z,24.10
2022-12-11T22:15:49.217Z,21.60
2022-12-11T22:19:53.838Z,20.25
2022-12-11T22:23:55.586Z,20.10
2022-12-11T22:27:57.225Z,19.98
2022-12-11T22:31:59.067Z,18.60
2022-12-11T22:36:00.927Z,20.15
2022-12-11T22:40:02.881Z,20.45
2022-12-11T22:44:04.754Z,19.58
2022-12-11T22:48:07.869Z,18.77
2022-12-11T22:52:09.883Z,20.20
2022-12-11T22:56:13.406Z,20.40
2022-12-11T23:00:15.523Z,19.67
2022-12-11T23:04:17.283Z,19.12
2022-12-11T23:08:19.053Z,19.42
2022-12-11T23:12:20.856Z,18.85
2022-12-11T23:16:24.841Z,20.48
2022-12-11T23:20:26.862Z,19.15
2022-12-11T23:24:28.889Z,19.15
2022-12-11T23:28:30.517Z,19.35
2022-12-11T23:32:32.122Z,19.45
2022-12-11T23:36:33.851Z,20.02
2022-12-11T23:40:36.174Z,19.77
2022-12-11T23:44:37.842Z,18.42
2022-12-11T23:48:39.687Z,18.05
2022-12-11T23:52:41.639Z,18.67
2022-12-11T23:56:43.321Z,19.08
